Time;durP1;ratioP1;P1;durP2;ratioP2;P2;SDS_P1;SDS_P2;PMS_P1;PMS_P2;Temp;Humidity;BMP_temperature;BMP_pressure;BME280_temperature;BME280_humidity;BME280_pressure;Samples;Min_cycle;Max_cycle;Signal;HPM_P1;HPM_P2
2022/01/31 00:00:26;;;;;;;;;;;;;;;;;;5022006;28;19939;-65
2022/01/31 00:02:53;;;;;;;;;;;;;;;;;;5019116;28;19925;-65
2022/01/31 00:05:20;;;;;;;;;;;;;;;;;;5026105;28;20302;-65
2022/01/31 00:07:47;;;;;;;;;;;;;;;;;;5023022;28;20299;-65
2022/01/31 00:10:16;;;;;;;;;;;;;;;;;;5021976;28;19961;-65
2022/01/31 00:12:51;;;;;;;;;;;;;;;;;;5025701;28;20024;-65
2022/01/31 00:15:18;;;;;;;;;;;;;;;;;;5029700;28;19925;-65
2022/01/31 00:17:45;;;;;;;;;;;;;;;;;;5026607;28;20429;-65
2022/01/31 00:20:12;;;;;;;;;;;;;;;;;;5024304;28;20399;-66
2022/01/31 00:22:39;;;;;;;;;;;;;;;;;;5016140;28;20016;-66
2022/01/31 00:25:06;;;;;;;;;;;;;;;;;;5020429;28;19925;-66
2022/01/31 00:27:33;;;;;;;;;;;;;;;;;;5017068;28;20434;-66
2022/01/31 00:30:00;;;;;;;;;;;;;;;;;;5024416;28;20300;-66
2022/01/31 00:32:29;;;;;;;;;;;;;;;;;;5021865;28;20299;-66
2022/01/31 00:34:56;;;;;;;;;;;;;;;;;;5029995;28;19925;-65
2022/01/31 00:37:23;;;;;;;;;;;;;;;;;;5036958;28;19925;-65
2022/01/31 00:39:50;;;;;;;;;;;;;;;;;;5035054;28;19925;-65
2022/01/31 00:42:19;;;;;;;;;;;;;;;;;;5022928;28;19936;-65
2022/01/31 00:44:50;;;;;;;;;;;;;;;;;;5027282;28;19932;-65
2022/01/31 00:47:20;;;;;;;;;;;;;;;;;;5032632;28;20272;-65
2022/01/31 00:50:04;;;;;;;;;;;;;;;;;;5026732;28;19932;-65
2022/01/31 00:52:30;;;;;;;;;;;;;;;;;;5016126;28;19936;-65
2022/01/31 00:54:57;;;;;;;;;;;;;;;;;;5026829;28;20376;-65
2022/01/31 00:57:24;;;;;;;;;;;;;;;;;;5019757;28;19940;-64
2022/01/31 00:59:51;;;;;;;;;;;;;;;;;;5019240;28;19925;-65
2022/01/31 01:02:18;;;;;;;;;;;;;;;;;;5017715;28;20012;-65
2022/01/31 01:04:45;;;;;;;;;;;;;;;;;;5030999;28;19932;-65
2022/01/31 01:07:14;;;;;;;;;;;;;;;;;;5026359;28;19929;-65
2022/01/31 01:09:41;;;;;;;;;;;;;;;;;;5026320;28;20515;-65
2022/01/31 01:12:08;;;;;;;;;;;;;;;;;;5025011;28;19925;-65
2022/01/31 01:14:35;;;;;;;;;;;;;;;;;;5021876;28;19929;-65
2022/01/31 01:17:02;;;;;;;;;;;;;;;;;;5032070;28;19926;-65
2022/01/31 01:19:29;;;;;;;;;;;;;;;;;;5023282;28;19925;-65
2022/01/31 01:21:56;;;;;;;;;;;;;;;;;;5018957;28;19933;-65
2022/01/31 01:24:23;;;;;;;;;;;;;;;;;;5025435;28;20063;-65
2022/01/31 01:26:50;;;;;;;;;;;;;;;;;;5028482;28;19932;-65
2022/01/31 01:29:17;;;;;;;;;;;;;;;;;;5031151;28;20023;-65
2022/01/31 01:31:44;;;;;;;;;;;;;;;;;;5017639;28;19926;-64
2022/01/31 01:34:11;;;;;;;;;;;;;;;;;;5021361;28;19925;-65
2022/01/31 01:36:40;;;;;;;;;;;;;;;;;;5019475;28;19925;-65
2022/01/31 01:39:06;;;;;;;;;;;;;;;;;;5029114;28;19929;-65
2022/01/31 01:41:33;;;;;;;;;;;;;;;;;;5017595;28;19944;-65
2022/01/31 01:44:00;;;;;;;;;;;;;;;;;;5023388;28;19925;-66
2022/01/31 01:46:27;;;;;;;;;;;;;;;;;;5020881;28;19929;-65
2022/01/31 01:48:54;;;;;;;;;;;;;;;;;;5025309;28;19932;-65
2022/01/31 01:51:21;;;;;;;;;;;;;;;;;;5019181;28;19929;-65
2022/01/31 01:53:48;;;;;;;;;;;;;;;;;;5027944;28;19933;-65
2022/01/31 01:56:15;;;;;;;;;;;;;;;;;;5019099;28;19961;-65
2022/01/31 01:58:42;;;;;;;;;;;;;;;;;;5019820;28;19933;-65
2022/01/31 02:01:09;;;;;;;;;;;;;;;;;;5014989;28;20363;-65
2022/01/31 02:03:36;;;;;;;;;;;;;;;;;;5023431;28;19929;-66
2022/01/31 02:06:03;;;;;;;;;;;;;;;;;;5015460;28;19936;-66
2022/01/31 02:08:38;;;;;;;;;;;;;;;;;;5027343;28;19932;-66
2022/01/31 02:11:05;;;;;;;;;;;;;;;;;;5024450;28;20365;-66
2022/01/31 02:13:32;;;;;;;;;;;;;;;;;;5021275;28;19979;-66
2022/01/31 02:15:59;;;;;;;;;;;;;;;;;;5031550;28;19925;-66
2022/01/31 02:18:28;;;;;;;;;;;;;;;;;;5028382;28;19929;-66
2022/01/31 02:20:55;;;;;;;;;;;;;;;;;;5018669;28;19925;-65
2022/01/31 02:23:22;;;;;;;;;;;;;;;;;;5019403;28;19926;-65
2022/01/31 02:25:49;;;;;;;;;;;;;;;;;;5018776;28;19932;-65
2022/01/31 02:28:16;;;;;;;;;;;;;;;;;;5025608;28;19925;-65
2022/01/31 02:30:43;;;;;;;;;;;;;;;;;;5024317;28;20402;-66
2022/01/31 02:33:10;;;;;;;;;;;;;;;;;;5026120;28;19925;-63
2022/01/31 02:35:37;;;;;;;;;;;;;;;;;;5019793;28;20287;-66
2022/01/31 02:38:04;;;;;;;;;;;;;;;;;;5022239;28;19979;-66
2022/01/31 02:40:30;;;;;;;;;;;;;;;;;;5022433;28;20675;-66
2022/01/31 02:42:57;;;;;;;;;;;;;;;;;;5020747;28;19925;-65
2022/01/31 02:45:24;;;;;;;;;;;;;;;;;;5026353;28;19925;-64
2022/01/31 02:47:54;;;;;;;;;;;;;;;;;;5029433;28;19935;-64
2022/01/31 02:50:21;;;;;;;;;;;;;;;;;;5015284;28;19925;-64
2022/01/31 02:52:57;;;;;;;;;;;;;;;;;;5021590;28;19969;-64
2022/01/31 02:55:24;;;;;;;;;;;;;;;;;;5020904;28;19930;-65
2022/01/31 02:57:51;;;;;;;;;;;;;;;;;;5015078;28;20295;-65
2022/01/31 03:00:18;;;;;;;;;;;;;;;;;;5012125;28;19926;-65
2022/01/31 03:02:45;;;;;;;;;;;;;;;;;;5025964;28;19925;-64
2022/01/31 03:05:12;;;;;;;;;;;;;;;;;;5018622;28;19932;-64
2022/01/31 03:07:39;;;;;;;;;;;;;;;;;;5023789;28;19931;-65
2022/01/31 03:10:06;;;;;;;;;;;;;;;;;;5022297;28;20007;-64
2022/01/31 03:12:33;;;;;;;;;;;;;;;;;;5021896;28;19961;-64
2022/01/31 03:15:00;;;;;;;;;;;;;;;;;;5024865;28;19932;-64
2022/01/31 03:17:27;;;;;;;;;;;;;;;;;;5030485;28;20355;-64
2022/01/31 03:19:54;;;;;;;;;;;;;;;;;;5022868;28;19964;-64
2022/01/31 03:22:23;;;;;;;;;;;;;;;;;;5033777;28;20334;-64
2022/01/31 03:24:50;;;;;;;;;;;;;;;;;;5021384;28;20024;-64
2022/01/31 03:27:17;;;;;;;;;;;;;;;;;;5032798;28;19925;-64
2022/01/31 03:29:44;;;;;;;;;;;;;;;;;;5026163;28;19929;-64
2022/01/31 03:32:11;;;;;;;;;;;;;;;;;;5029520;28;19929;-65
2022/01/31 03:34:38;;;;;;;;;;;;;;;;;;5026613;28;19925;-64
2022/01/31 03:37:05;;;;;;;;;;;;;;;;;;5031530;28;19971;-65
2022/01/31 03:39:32;;;;;;;;;;;;;;;;;;5023404;28;19932;-65
2022/01/31 03:41:59;;;;;;;;;;;;;;;;;;5024062;28;19926;-65
2022/01/31 03:44:26;;;;;;;;;;;;;;;;;;5035719;28;19929;-65
2022/01/31 03:46:53;;;;;;;;;;;;;;;;;;5038424;28;19925;-65
2022/01/31 03:49:20;;;;;;;;;;;;;;;;;;5029710;28;19925;-65
2022/01/31 03:51:47;;;;;;;;;;;;;;;;;;5020178;28;19930;-65
2022/01/31 03:54:14;;;;;;;;;;;;;;;;;;5025246;28;19929;-65
2022/01/31 03:56:41;;;;;;;;;;;;;;;;;;5025408;28;19925;-65
2022/01/31 03:59:08;;;;;;;;;;;;;;;;;;5016720;28;20346;-65
2022/01/31 04:01:35;;;;;;;;;;;;;;;;;;5024106;28;19979;-65
2022/01/31 04:04:02;;;;;;;;;;;;;;;;;;5020571;28;19965;-65
2022/01/31 04:06:29;;;;;;;;;;;;;;;;;;5021252;28;19929;-65
2022/01/31 04:08:56;;;;;;;;;;;;;;;;;;5021440;28;19925;-65
2022/01/31 04:11:23;;;;;;;;;;;;;;;;;;5026938;28;19926;-65
2022/01/31 04:13:50;;;;;;;;;;;;;;;;;;5026542;28;19925;-65
2022/01/31 04:16:17;;;;;;;;;;;;;;;;;;5030547;28;20004;-65
2022/01/31 04:18:44;;;;;;;;;;;;;;;;;;5023323;28;19933;-65
2022/01/31 04:21:11;;;;;;;;;;;;;;;;;;5027819;28;20393;-65
2022/01/31 04:23:37;;;;;;;;;;;;;;;;;;5017179;28;19932;-65
2022/01/31 04:26:10;;;;;;;;;;;;;;;;;;5023313;28;19937;-65
2022/01/31 04:28:43;;;;;;;;;;;;;;;;;;5019148;28;19972;-65
2022/01/31 04:31:23;;;;;;;;;;;;;;;;;;5023067;28;19980;-65
2022/01/31 04:33:50;;;;;;;;;;;;;;;;;;5021236;28;19925;-64
2022/01/31 04:36:17;;;;;;;;;;;;;;;;;;5033620;28;20028;-65
2022/01/31 04:38:44;;;;;;;;;;;;;;;;;;5019232;28;19933;-65
2022/01/31 04:41:11;;;;;;;;;;;;;;;;;;5035995;28;19924;-65
2022/01/31 04:43:38;;;;;;;;;;;;;;;;;;5016187;28;19932;-65
2022/01/31 04:46:06;;;;;;;;;;;;;;;;;;5028339;28;19933;-65
2022/01/31 04:48:33;;;;;;;;;;;;;;;;;;5023699;28;19929;-65
2022/01/31 04:51:00;;;;;;;;;;;;;;;;;;5029073;28;19925;-65
2022/01/31 04:53:27;;;;;;;;;;;;;;;;;;5015115;28;19925;-65
2022/01/31 04:55:54;;;;;;;;;;;;;;;;;;5016566;28;19930;-65
2022/01/31 04:58:22;;;;;;;;;;;;;;;;;;5014901;28;19926;-65
2022/01/31 05:00:49;;;;;;;;;;;;;;;;;;5021255;28;19926;-65
2022/01/31 05:03:18;;;;;;;;;;;;;;;;;;5016309;28;20276;-65
2022/01/31 05:05:45;;;;;;;;;;;;;;;;;;5019727;28;19929;-65
2022/01/31 05:08:12;;;;;;;;;;;;;;;;;;5026546;28;19937;-65
2022/01/31 05:10:43;;;;;;;;;;;;;;;;;;5017677;28;19936;-65
2022/01/31 05:13:11;;;;;;;;;;;;;;;;;;5030579;28;20028;-65
2022/01/31 05:15:38;;;;;;;;;;;;;;;;;;5017702;28;20410;-64
2022/01/31 05:18:05;;;;;;;;;;;;;;;;;;5026862;28;20079;-65
2022/01/31 05:20:32;;;;;;;;;;;;;;;;;;5023192;28;19926;-64
2022/01/31 05:22:59;;;;;;;;;;;;;;;;;;5020794;28;19932;-65
2022/01/31 05:25:26;;;;;;;;;;;;;;;;;;5016250;28;19929;-65
2022/01/31 05:27:52;;;;;;;;;;;;;;;;;;5022240;28;19925;-65
2022/01/31 05:30:21;;;;;;;;;;;;;;;;;;5019225;28;19926;-65
2022/01/31 05:32:48;;;;;;;;;;;;;;;;;;5022914;28;19952;-65
2022/01/31 05:35:15;;;;;;;;;;;;;;;;;;5021974;28;19962;-65
2022/01/31 05:37:42;;;;;;;;;;;;;;;;;;5033761;28;19929;-65
2022/01/31 05:40:09;;;;;;;;;;;;;;;;;;5027298;28;19952;-65
2022/01/31 05:42:36;;;;;;;;;;;;;;;;;;5023502;28;19925;-65
2022/01/31 05:45:03;;;;;;;;;;;;;;;;;;5025610;28;19932;-65
2022/01/31 05:47:30;;;;;;;;;;;;;;;;;;5029786;28;20343;-65
2022/01/31 05:49:57;;;;;;;;;;;;;;;;;;5022465;28;19941;-65
2022/01/31 05:52:24;;;;;;;;;;;;;;;;;;5023621;28;20447;-65
2022/01/31 05:54:51;;;;;;;;;;;;;;;;;;5021756;28;19930;-65
2022/01/31 05:57:18;;;;;;;;;;;;;;;;;;5020363;28;19939;-65
2022/01/31 05:59:45;;;;;;;;;;;;;;;;;;5022295;28;20406;-65
2022/01/31 06:02:12;;;;;;;;;;;;;;;;;;5019072;28;19932;-65
2022/01/31 06:04:39;;;;;;;;;;;;;;;;;;5016809;28;19932;-65
2022/01/31 06:07:06;;;;;;;;;;;;;;;;;;5029982;28;19985;-65
2022/01/31 06:09:33;;;;;;;;;;;;;;;;;;5023141;28;19925;-65
2022/01/31 06:12:02;;;;;;;;;;;;;;;;;;5027930;28;20310;-66
2022/01/31 06:14:28;;;;;;;;;;;;;;;;;;5024247;28;19979;-65
2022/01/31 06:16:55;;;;;;;;;;;;;;;;;;5026590;28;19925;-66
2022/01/31 06:19:22;;;;;;;;;;;;;;;;;;5030294;28;19932;-65
2022/01/31 06:21:49;;;;;;;;;;;;;;;;;;5026007;28;19929;-65
2022/01/31 06:24:16;;;;;;;;;;;;;;;;;;5025922;28;20604;-65
2022/01/31 06:26:43;;;;;;;;;;;;;;;;;;5019849;28;19926;-66
2022/01/31 06:29:10;;;;;;;;;;;;;;;;;;5018701;28;19965;-66
2022/01/31 06:31:38;;;;;;;;;;;;;;;;;;5021208;28;19932;-65
2022/01/31 06:34:05;;;;;;;;;;;;;;;;;;5030128;28;20366;-65
2022/01/31 06:36:32;;;;;;;;;;;;;;;;;;5026353;28;19931;-65
2022/01/31 06:38:59;;;;;;;;;;;;;;;;;;5025027;28;19933;-65
2022/01/31 06:41:26;;;;;;;;;;;;;;;;;;5031225;28;19925;-65
2022/01/31 06:43:53;;;;;;;;;;;;;;;;;;5025864;28;19925;-65
2022/01/31 06:46:20;;;;;;;;;;;;;;;;;;5021174;28;20011;-68
2022/01/31 06:48:47;;;;;;;;;;;;;;;;;;5017098;28;20025;-68
2022/01/31 06:51:14;;;;;;;;;;;;;;;;;;4994902;28;20205;-68
2022/01/31 06:53:42;;;;;;;;;;;;;;;;;;5014068;28;20008;-68
2022/01/31 06:56:09;;;;;;;;;;;;;;;;;;5009954;28;19944;-68
2022/01/31 06:58:35;;;;;;;;;;;;;;;;;;5020957;28;20012;-68
2022/01/31 07:01:03;;;;;;;;;;;;;;;;;;5016595;28;20297;-68
2022/01/31 07:03:30;;;;;;;;;;;;;;;;;;5017275;28;19951;-68
2022/01/31 07:05:56;;;;;;;;;;;;;;;;;;5019110;28;19926;-68
2022/01/31 07:08:23;;;;;;;;;;;;;;;;;;5019121;28;20367;-67
2022/01/31 07:10:52;;;;;;;;;;;;;;;;;;5016577;28;19941;-67
2022/01/31 07:13:35;;;;;;;;;;;;;;;;;;5025327;28;19949;-67
2022/01/31 07:16:02;;;;;;;;;;;;;;;;;;5018057;28;20031;-67
2022/01/31 07:18:29;;;;;;;;;;;;;;;;;;5024460;28;19930;-68
2022/01/31 07:20:56;;;;;;;;;;;;;;;;;;5015411;28;19929;-68
2022/01/31 07:23:27;;;;;;;;;;;;;;;;;;5021422;28;19969;-68
2022/01/31 07:25:54;;;;;;;;;;;;;;;;;;5026789;28;19929;-67
2022/01/31 07:28:22;;;;;;;;;;;;;;;;;;5025318;28;19956;-67
2022/01/31 07:30:49;;;;;;;;;;;;;;;;;;5018155;28;20404;-68
2022/01/31 07:33:15;;;;;;;;;;;;;;;;;;5030803;28;19925;-69
2022/01/31 07:35:42;;;;;;;;;;;;;;;;;;5020390;28;19932;-69
2022/01/31 07:38:09;;;;;;;;;;;;;;;;;;5018753;28;19929;-68
2022/01/31 07:40:37;;;;;;;;;;;;;;;;;;5024314;28;20361;-68
2022/01/31 07:43:03;;;;;;;;;;;;;;;;;;5023225;28;19935;-67
2022/01/31 07:45:30;;;;;;;;;;;;;;;;;;5019862;28;19925;-68
2022/01/31 07:47:57;;;;;;;;;;;;;;;;;;5012985;28;20012;-68
2022/01/31 07:50:24;;;;;;;;;;;;;;;;;;5016903;28;19933;-67
2022/01/31 07:52:51;;;;;;;;;;;;;;;;;;5021667;28;19929;-68
2022/01/31 07:55:18;;;;;;;;;;;;;;;;;;5025126;28;20445;-67
2022/01/31 07:57:46;;;;;;;;;;;;;;;;;;5025114;28;19932;-68
2022/01/31 08:00:13;;;;;;;;;;;;;;;;;;5009113;28;19926;-68
2022/01/31 08:02:40;;;;;;;;;;;;;;;;;;5013664;28;19932;-68
2022/01/31 08:05:07;;;;;;;;;;;;;;;;;;5019903;28;19932;-68
2022/01/31 08:07:34;;;;;;;;;;;;;;;;;;5023051;28;19929;-67
2022/01/31 08:10:02;;;;;;;;;;;;;;;;;;5018952;28;20375;-67
2022/01/31 08:12:29;;;;;;;;;;;;;;;;;;5027016;28;20383;-68
2022/01/31 08:15:02;;;;;;;;;;;;;;;;;;5021379;28;19969;-68
2022/01/31 08:17:28;;;;;;;;;;;;;;;;;;5024786;28;19983;-68
2022/01/31 08:19:55;;;;;;;;;;;;;;;;;;5014205;28;20668;-67
2022/01/31 08:22:23;;;;;;;;;;;;;;;;;;5022332;28;19960;-67
2022/01/31 08:24:50;;;;;;;;;;;;;;;;;;5021536;28;20023;-68
2022/01/31 08:27:17;;;;;;;;;;;;;;;;;;5024691;28;19925;-69
2022/01/31 08:29:44;;;;;;;;;;;;;;;;;;5013359;28;19933;-67
2022/01/31 08:32:17;;;;;;;;;;;;;;;;;;5020235;28;19965;-66
2022/01/31 08:37:29;;;;;;;;;;;;;;;;;;5026375;28;20023;-67
2022/01/31 08:39:57;;;;;;;;;;;;;;;;;;5022543;28;19933;-67
2022/01/31 08:42:23;;;;;;;;;;;;;;;;;;5030728;28;19933;-67
2022/01/31 08:44:50;;;;;;;;;;;;;;;;;;5026200;28;20321;-68
2022/01/31 08:47:17;;;;;;;;;;;;;;;;;;5026510;28;19937;-68
2022/01/31 08:49:45;;;;;;;;;;;;;;;;;;5016398;28;20282;-68
2022/01/31 08:52:12;;;;;;;;;;;;;;;;;;5036622;28;19933;-68
2022/01/31 08:54:40;;;;;;;;;;;;;;;;;;5020422;28;19931;-68
2022/01/31 08:57:07;;;;;;;;;;;;;;;;;;5012469;28;19926;-68
2022/01/31 08:59:40;;;;;;;;;;;;;;;;;;5016171;28;19984;-66
2022/01/31 09:02:12;;;;;;;;;;;;;;;;;;5015584;28;24224;-68
2022/01/31 09:04:47;;;;;;;;;;;;;;;;;;5019947;28;19926;-68
2022/01/31 09:07:14;;;;;;;;;;;;;;;;;;5022631;28;19984;-68
2022/01/31 09:09:41;;;;;;;;;;;;;;;;;;5015309;28;20094;-70
2022/01/31 09:12:10;;;;;;;;;;;;;;;;;;5022733;28;19934;-67
2022/01/31 09:14:37;;;;;;;;;;;;;;;;;;5029884;28;19948;-67
2022/01/31 09:17:04;;;;;;;;;;;;;;;;;;5021502;28;19947;-68
2022/01/31 09:19:31;;;;;;;;;;;;;;;;;;5020734;28;19932;-67
2022/01/31 09:21:59;;;;;;;;;;;;;;;;;;5021693;28;20427;-68
2022/01/31 09:24:26;;;;;;;;;;;;;;;;;;5026473;28;19992;-68
2022/01/31 09:26:53;;;;;;;;;;;;;;;;;;5019370;28;19925;-67
2022/01/31 09:29:21;;;;;;;;;;;;;;;;;;5016292;28;19929;-67
2022/01/31 09:31:48;;;;;;;;;;;;;;;;;;5019345;28;19925;-68
2022/01/31 09:34:15;;;;;;;;;;;;;;;;;;5024436;28;20024;-66
2022/01/31 09:36:42;;;;;;;;;;;;;;;;;;5019175;28;19925;-68
2022/01/31 09:39:09;;;;;;;;;;;;;;;;;;5013730;28;19975;-68
2022/01/31 09:41:38;;;;;;;;;;;;;;;;;;5014317;28;20034;-67
2022/01/31 09:44:16;;;;;;;;;;;;;;;;;;5016732;28;19937;-68
2022/01/31 09:49:18;;;;;;;;;;;;;;;;;;5012958;28;20059;-67
2022/01/31 09:51:45;;;;;;;;;;;;;;;;;;5028043;28;20028;-68
2022/01/31 09:54:12;;;;;;;;;;;;;;;;;;5025311;28;19925;-69
2022/01/31 09:56:39;;;;;;;;;;;;;;;;;;5025068;28;19931;-69
2022/01/31 09:59:06;;;;;;;;;;;;;;;;;;5016508;28;19979;-68
2022/01/31 10:01:33;;;;;;;;;;;;;;;;;;5009651;28;19929;-70
2022/01/31 10:04:00;;;;;;;;;;;;;;;;;;5015939;28;19925;-67
2022/01/31 10:06:27;;;;;;;;;;;;;;;;;;5022637;28;20006;-67
2022/01/31 10:08:54;;;;;;;;;;;;;;;;;;5027841;28;19972;-69
2022/01/31 10:11:27;;;;;;;;;;;;;;;;;;5018758;28;19932;-68
2022/01/31 10:16:38;;;;;;;;;;;;;;;;;;5024673;28;20046;-67
2022/01/31 10:19:06;;;;;;;;;;;;;;;;;;5015512;28;20020;-68
2022/01/31 10:21:33;;;;;;;;;;;;;;;;;;5018491;28;20285;-66
2022/01/31 10:24:01;;;;;;;;;;;;;;;;;;5010530;28;19925;-68
2022/01/31 10:26:28;;;;;;;;;;;;;;;;;;5018128;28;19931;-69
2022/01/31 10:28:55;;;;;;;;;;;;;;;;;;5019995;28;19940;-67
2022/01/31 10:31:22;;;;;;;;;;;;;;;;;;5019362;28;19944;-70
2022/01/31 10:33:49;;;;;;;;;;;;;;;;;;5015512;28;19932;-66
2022/01/31 10:36:16;;;;;;;;;;;;;;;;;;5024634;28;19925;-68
2022/01/31 10:38:45;;;;;;;;;;;;;;;;;;5014679;28;19940;-68
2022/01/31 10:44:44;;;;;;;;;;;;;;;;;;4984466;28;19940;-70
2022/01/31 10:52:34;;;;;;;;;;;;;;;;;;5022648;28;20031;-68
2022/01/31 10:55:01;;;;;;;;;;;;;;;;;;5019034;28;20328;-69
2022/01/31 10:57:28;;;;;;;;;;;;;;;;;;5023863;28;19976;-68
2022/01/31 10:59:55;;;;;;;;;;;;;;;;;;5015648;28;20362;-67
2022/01/31 11:02:22;;;;;;;;;;;;;;;;;;5014245;28;19926;-68
2022/01/31 11:04:50;;;;;;;;;;;;;;;;;;5011194;28;19957;-67
2022/01/31 11:07:17;;;;;;;;;;;;;;;;;;5022833;28;19933;-66
2022/01/31 11:09:45;;;;;;;;;;;;;;;;;;5021994;28;19931;-67
2022/01/31 11:12:12;;;;;;;;;;;;;;;;;;5018236;28;19937;-67
2022/01/31 11:14:39;;;;;;;;;;;;;;;;;;5024994;28;20064;-67
2022/01/31 11:17:06;;;;;;;;;;;;;;;;;;5020958;28;20007;-67
2022/01/31 11:19:33;;;;;;;;;;;;;;;;;;5019213;28;19925;-67
2022/01/31 11:22:03;;;;;;;;;;;;;;;;;;5016393;28;20066;-68
2022/01/31 11:24:32;;;;;;;;;;;;;;;;;;5023891;28;19925;-68
2022/01/31 11:26:59;;;;;;;;;;;;;;;;;;5019121;28;19996;-69
2022/01/31 11:29:26;;;;;;;;;;;;;;;;;;5016013;28;19929;-67
2022/01/31 11:31:53;;;;;;;;;;;;;;;;;;5023539;28;19951;-68
2022/01/31 11:34:20;;;;;;;;;;;;;;;;;;5014105;28;20025;-68
2022/01/31 11:36:47;;;;;;;;;;;;;;;;;;5033886;28;19951;-68
2022/01/31 11:39:14;;;;;;;;;;;;;;;;;;5016329;28;19995;-67
2022/01/31 11:41:41;;;;;;;;;;;;;;;;;;5019214;28;19934;-69
2022/01/31 11:44:08;;;;;;;;;;;;;;;;;;5016241;28;19936;-69
2022/01/31 11:46:35;;;;;;;;;;;;;;;;;;5025953;28;20338;-68
2022/01/31 11:49:02;;;;;;;;;;;;;;;;;;5022275;28;19933;-70
2022/01/31 11:51:29;;;;;;;;;;;;;;;;;;5022255;28;19987;-68
2022/01/31 11:53:56;;;;;;;;;;;;;;;;;;5030607;28;19944;-69
2022/01/31 11:56:23;;;;;;;;;;;;;;;;;;5023771;28;20308;-68
2022/01/31 11:58:50;;;;;;;;;;;;;;;;;;5025194;28;20350;-69
2022/01/31 12:01:18;;;;;;;;;;;;;;;;;;5024023;28;19931;-68
2022/01/31 12:03:44;;;;;;;;;;;;;;;;;;5020914;28;20456;-67
2022/01/31 12:06:11;;;;;;;;;;;;;;;;;;5022321;28;19924;-69
2022/01/31 12:08:41;;;;;;;;;;;;;;;;;;5024701;28;19925;-68
2022/01/31 12:11:13;;;;;;;;;;;;;;;;;;5029108;28;19925;-68
2022/01/31 12:13:41;;;;;;;;;;;;;;;;;;5024278;28;19933;-68
2022/01/31 12:16:23;;;;;;;;;;;;;;;;;;5024492;28;19932;-69
2022/01/31 12:19:01;;;;;;;;;;;;;;;;;;5022899;28;19925;-68
2022/01/31 12:24:13;;;;;;;;;;;;;;;;;;5023349;28;19936;-67
2022/01/31 12:26:40;;;;;;;;;;;;;;;;;;5029738;28;19997;-68
2022/01/31 12:29:07;;;;;;;;;;;;;;;;;;5020787;28;19929;-66
2022/01/31 12:31:34;;;;;;;;;;;;;;;;;;5026799;28;19929;-67
2022/01/31 12:34:01;;;;;;;;;;;;;;;;;;5024598;28;20019;-68
2022/01/31 12:36:28;;;;;;;;;;;;;;;;;;5023300;28;20401;-69
2022/01/31 12:38:55;;;;;;;;;;;;;;;;;;5029113;28;19928;-68
2022/01/31 12:41:22;;;;;;;;;;;;;;;;;;5021115;28;20310;-67
2022/01/31 12:43:51;;;;;;;;;;;;;;;;;;5025968;28;20390;-69
2022/01/31 12:46:18;;;;;;;;;;;;;;;;;;5020372;28;20559;-69
2022/01/31 12:48:45;;;;;;;;;;;;;;;;;;5024401;28;20321;-66
2022/01/31 12:51:15;;;;;;;;;;;;;;;;;;5013692;28;19935;-69
2022/01/31 12:53:44;;;;;;;;;;;;;;;;;;5022505;28;19935;-68
2022/01/31 12:56:11;;;;;;;;;;;;;;;;;;5022214;28;19940;-69
2022/01/31 12:58:38;;;;;;;;;;;;;;;;;;5023727;28;20036;-68
2022/01/31 13:01:05;;;;;;;;;;;;;;;;;;5024844;28;19925;-71
2022/01/31 13:03:32;;;;;;;;;;;;;;;;;;5024536;28;19925;-70
2022/01/31 13:05:59;;;;;;;;;;;;;;;;;;5019587;28;20003;-69
2022/01/31 13:08:26;;;;;;;;;;;;;;;;;;5019224;28;20379;-68
2022/01/31 13:10:55;;;;;;;;;;;;;;;;;;5026169;28;19926;-68
2022/01/31 13:13:22;;;;;;;;;;;;;;;;;;5027587;28;19978;-68
2022/01/31 13:15:49;;;;;;;;;;;;;;;;;;5019665;28;19954;-68
2022/01/31 13:18:18;;;;;;;;;;;;;;;;;;5027901;28;20012;-69
2022/01/31 13:20:45;;;;;;;;;;;;;;;;;;5023384;28;19987;-68
2022/01/31 13:23:12;;;;;;;;;;;;;;;;;;5023954;28;19929;-68
2022/01/31 13:25:39;;;;;;;;;;;;;;;;;;5024736;28;19972;-69
2022/01/31 13:28:06;;;;;;;;;;;;;;;;;;5027640;28;19931;-67
2022/01/31 13:30:33;;;;;;;;;;;;;;;;;;5019332;28;19935;-66
2022/01/31 13:33:00;;;;;;;;;;;;;;;;;;5015032;28;19932;-67
2022/01/31 13:35:27;;;;;;;;;;;;;;;;;;5030645;23;20107;-64
2022/01/31 13:37:54;;;;;;;;;;;;;;;;;;5055757;28;20016;-64
2022/01/31 13:40:21;;;;;;;;;;;;;;;;;;5037019;28;19979;-64
2022/01/31 13:42:48;;;;;;;;;;;;;;;;;;5041872;28;19931;-66
2022/01/31 13:45:16;;;;;;;;;;;;;;;;;;5046929;28;20018;-64
2022/01/31 13:47:48;;;;;;;;;;;;;;;;;;5041606;28;19935;-62
2022/01/31 13:50:15;;;;;;;;;;;;;;;;;;5037008;28;19925;-63
2022/01/31 13:52:42;;;;;;;;;;;;;;;;;;5038396;28;19964;-64
2022/01/31 13:55:09;;;;;;;;;;;;;;;;;;5038842;28;19943;-64
2022/01/31 13:57:36;;;;;;;;;;;;;;;;;;5036042;28;19928;-63
2022/01/31 14:00:03;;;;;;;;;;;;;;;;;;5038402;28;20060;-65
2022/01/31 14:02:30;;;;;;;;;;;;;;;;;;5030037;28;20284;-64
2022/01/31 14:04:57;;;;;;;;;;;;;;;;;;5033342;28;19928;-63
2022/01/31 14:07:24;;;;;;;;;;;;;;;;;;5031505;28;19929;-63
2022/01/31 14:09:53;;;;;;;;;;;;;;;;;;5036540;28;19925;-66
2022/01/31 14:12:20;;;;;;;;;;;;;;;;;;5034317;28;20427;-64
2022/01/31 14:14:47;;;;;;;;;;;;;;;;;;5036666;28;20694;-65
2022/01/31 14:17:14;;;;;;;;;;;;;;;;;;5037575;28;19933;-64
2022/01/31 14:19:41;;;;;;;;;;;;;;;;;;5034255;28;19959;-63
2022/01/31 14:22:08;;;;;;;;;;;;;;;;;;5038570;28;19925;-63
2022/01/31 14:24:35;;;;;;;;;;;;;;;;;;5038210;28;19925;-63
2022/01/31 14:27:03;;;;;;;;;;;;;;;;;;5032785;28;20289;-62
2022/01/31 14:29:30;;;;;;;;;;;;;;;;;;5034221;28;20310;-64
2022/01/31 14:31:58;;;;;;;;;;;;;;;;;;5032711;28;20294;-63
2022/01/31 14:34:25;;;;;;;;;;;;;;;;;;5026574;28;19926;-64
2022/01/31 14:36:53;;;;;;;;;;;;;;;;;;5032991;28;19925;-64
2022/01/31 14:39:31;;;;;;;;;;;;;;;;;;5041073;28;19925;-63
2022/01/31 14:42:06;;;;;;;;;;;;;;;;;;5043456;28;20013;-64
2022/01/31 14:47:20;;;;;;;;;;;;;;;;;;5037897;28;19924;-64
2022/01/31 14:49:47;;;;;;;;;;;;;;;;;;5043740;28;19929;-64
2022/01/31 14:52:14;;;;;;;;;;;;;;;;;;5040846;28;19932;-65
2022/01/31 14:54:41;;;;;;;;;;;;;;;;;;5038763;28;19926;-63
2022/01/31 14:57:08;;;;;;;;;;;;;;;;;;5044872;28;19925;-65
2022/01/31 14:59:35;;;;;;;;;;;;;;;;;;5037572;28;20003;-63
2022/01/31 15:02:02;;;;;;;;;;;;;;;;;;5033457;28;19924;-63
2022/01/31 15:04:29;;;;;;;;;;;;;;;;;;5036790;28;19925;-64
2022/01/31 15:06:57;;;;;;;;;;;;;;;;;;5038092;28;19933;-65
2022/01/31 15:09:24;;;;;;;;;;;;;;;;;;5032510;28;19928;-64
2022/01/31 15:11:51;;;;;;;;;;;;;;;;;;5037857;28;20470;-63
2022/01/31 15:14:18;;;;;;;;;;;;;;;;;;5043368;28;19933;-62
2022/01/31 15:16:45;;;;;;;;;;;;;;;;;;5035314;28;20357;-66
2022/01/31 15:19:14;;;;;;;;;;;;;;;;;;5045240;28;20391;-64
2022/01/31 15:21:41;;;;;;;;;;;;;;;;;;5041232;28;19924;-64
2022/01/31 15:24:09;;;;;;;;;;;;;;;;;;5040790;28;19983;-64
2022/01/31 15:26:38;;;;;;;;;;;;;;;;;;5048377;28;20007;-64
2022/01/31 15:29:04;;;;;;;;;;;;;;;;;;5044606;28;20011;-63
2022/01/31 15:31:31;;;;;;;;;;;;;;;;;;5036488;28;20595;-63
2022/01/31 15:34:00;;;;;;;;;;;;;;;;;;5038547;28;19932;-63
2022/01/31 15:36:27;;;;;;;;;;;;;;;;;;5039820;28;19987;-64
2022/01/31 15:38:55;;;;;;;;;;;;;;;;;;5036666;28;19932;-64
2022/01/31 15:41:22;;;;;;;;;;;;;;;;;;5049927;28;20354;-65
2022/01/31 15:43:55;;;;;;;;;;;;;;;;;;5043023;28;19925;-64
2022/01/31 15:46:22;;;;;;;;;;;;;;;;;;5039134;28;20421;-64
2022/01/31 15:48:49;;;;;;;;;;;;;;;;;;5040367;28;19940;-66
2022/01/31 15:51:16;;;;;;;;;;;;;;;;;;5046925;28;19925;-68
2022/01/31 15:53:45;;;;;;;;;;;;;;;;;;5043686;28;19931;-67
2022/01/31 15:56:12;;;;;;;;;;;;;;;;;;5047749;28;19929;-67
2022/01/31 15:58:39;;;;;;;;;;;;;;;;;;5041901;28;19933;-68
2022/01/31 16:01:09;;;;;;;;;;;;;;;;;;5048254;28;19925;-67
2022/01/31 16:03:36;;;;;;;;;;;;;;;;;;5049094;28;20513;-67
2022/01/31 16:06:03;;;;;;;;;;;;;;;;;;5042991;28;20015;-64
2022/01/31 16:08:30;;;;;;;;;;;;;;;;;;5040727;28;20342;-63
2022/01/31 16:10:57;;;;;;;;;;;;;;;;;;5035674;28;19936;-64
2022/01/31 16:13:24;;;;;;;;;;;;;;;;;;5048089;28;19925;-64
2022/01/31 16:15:51;;;;;;;;;;;;;;;;;;5031999;28;19925;-64
2022/01/31 16:18:18;;;;;;;;;;;;;;;;;;5041444;28;19933;-64
2022/01/31 16:20:45;;;;;;;;;;;;;;;;;;5045304;28;19979;-65
2022/01/31 16:23:12;;;;;;;;;;;;;;;;;;5041875;28;19928;-64
2022/01/31 16:25:42;;;;;;;;;;;;;;;;;;5039360;28;19925;-64
2022/01/31 16:28:14;;;;;;;;;;;;;;;;;;5040296;28;19924;-64
2022/01/31 16:30:41;;;;;;;;;;;;;;;;;;5041847;28;20195;-65
2022/01/31 16:33:08;;;;;;;;;;;;;;;;;;5038624;28;19964;-64
2022/01/31 16:35:35;;;;;;;;;;;;;;;;;;5040793;28;19995;-64
2022/01/31 16:38:02;;;;;;;;;;;;;;;;;;5046687;28;19933;-64
2022/01/31 16:40:29;;;;;;;;;;;;;;;;;;5046993;28;19924;-66
2022/01/31 16:42:56;;;;;;;;;;;;;;;;;;5043935;28;19925;-64
2022/01/31 16:45:23;;;;;;;;;;;;;;;;;;5047327;28;19933;-64
2022/01/31 16:47:52;;;;;;;;;;;;;;;;;;5045030;28;20393;-64
2022/01/31 16:50:19;;;;;;;;;;;;;;;;;;5040563;28;19939;-64
2022/01/31 16:52:46;;;;;;;;;;;;;;;;;;5041240;28;19931;-63
2022/01/31 16:55:13;;;;;;;;;;;;;;;;;;5045618;28;20051;-64
2022/01/31 16:57:39;;;;;;;;;;;;;;;;;;5045609;28;19951;-63
2022/01/31 17:00:06;;;;;;;;;;;;;;;;;;5046893;28;20011;-63
2022/01/31 17:02:33;;;;;;;;;;;;;;;;;;5037277;28;19972;-65
2022/01/31 17:05:00;;;;;;;;;;;;;;;;;;5028436;28;20302;-64
2022/01/31 17:07:27;;;;;;;;;;;;;;;;;;5041825;28;19924;-63
2022/01/31 17:09:54;;;;;;;;;;;;;;;;;;5038785;28;19925;-64